Time;durP1;ratioP1;P1;durP2;ratioP2;P2;SDS_P1;SDS_P2;PMS_P1;PMS_P2;Temp;Humidity;BMP_temperature;BMP_pressure;BME280_temperature;BME280_humidity;BME280_pressure;Samples;Min_cycle;Max_cycle;Signal;HPM_P1;HPM_P2
2021/05/21 00:01:14;;;;;;;2.30;1.50;;;;;;;12.62;58.08;100313.63;4998584;28;20634;-86
2021/05/21 00:03:43;;;;;;;3.05;1.50;;;;;;;12.54;59.32;100309.34;5014416;28;20052;-86
2021/05/21 00:06:09;;;;;;;2.50;1.50;;;;;;;12.37;59.93;100319.28;5016491;28;20043;-87
2021/05/21 00:08:35;;;;;;;3.40;1.42;;;;;;;12.48;58.82;100324.34;5014606;28;20044;-86
2021/05/21 00:11:01;;;;;;;2.33;1.30;;;;;;;12.37;60.24;100290.47;5016809;28;20025;-85
2021/05/21 00:13:27;;;;;;;3.50;2.00;;;;;;;12.26;60.40;100306.38;5030283;28;20024;-86
2021/05/21 00:15:53;;;;;;;2.58;1.40;;;;;;;12.46;58.89;100289.41;5033192;28;20048;-86
2021/05/21 00:18:19;;;;;;;2.70;1.40;;;;;;;12.26;59.93;100264.44;5000773;28;20068;-85
2021/05/21 00:20:44;;;;;;;3.92;1.70;;;;;;;12.49;59.07;100294.59;5017652;28;20051;-87
2021/05/21 00:23:13;;;;;;;2.90;1.48;;;;;;;12.35;59.36;100282.63;5015513;28;20432;-86
2021/05/21 00:25:39;;;;;;;2.92;1.40;;;;;;;12.38;58.66;100252.88;5003431;28;20033;-86
2021/05/21 00:28:05;;;;;;;2.63;1.38;;;;;;;12.30;59.90;100252.16;5000809;28;20083;-86
2021/05/21 00:30:34;;;;;;;2.92;1.30;;;;;;;12.40;59.54;100243.22;5008174;28;20075;-86
2021/05/21 00:33:00;;;;;;;1.95;1.25;;;;;;;12.56;57.79;100254.28;5013656;28;20048;-86
2021/05/21 00:35:26;;;;;;;2.65;1.40;;;;;;;12.41;59.22;100242.34;5029041;28;20089;-86
2021/05/21 00:37:58;;;;;;;2.70;1.40;;;;;;;12.50;58.62;100281.50;5016000;28;20485;-86
2021/05/21 00:40:24;;;;;;;3.03;1.33;;;;;;;12.76;56.71;100267.84;5024989;28;20040;-84
2021/05/21 00:42:50;;;;;;;2.95;1.50;;;;;;;12.69;56.56;100274.09;5012983;28;20535;-85
2021/05/21 00:45:16;;;;;;;2.95;1.40;;;;;;;12.56;57.80;100233.31;5001300;28;20052;-86
2021/05/21 00:47:42;;;;;;;2.08;1.30;;;;;;;12.86;55.96;100228.31;5011169;28;20044;-85
2021/05/21 00:50:09;;;;;;;2.40;1.25;;;;;;;12.81;56.49;100227.53;4998788;28;20070;-85
2021/05/21 00:52:38;;;;;;;3.20;1.35;;;;;;;12.72;57.41;100232.13;5018057;28;20051;-85
2021/05/21 00:55:08;;;;;;;2.40;1.17;;;;;;;12.71;56.63;100213.75;5028115;28;20053;-85
2021/05/21 00:57:35;;;;;;;3.08;1.40;;;;;;;12.66;57.31;100213.00;4996065;28;20548;-86
2021/05/21 01:00:01;;;;;;;2.85;1.25;;;;;;;12.84;56.53;100217.84;5014605;28;20105;-85
2021/05/21 01:02:27;;;;;;;2.40;1.10;;;;;;;12.85;55.69;100192.47;5016698;28;20040;-84
2021/05/21 01:04:53;;;;;;;3.67;1.08;;;;;;;12.86;55.83;100209.94;5003794;28;20452;-85
2021/05/21 01:07:19;;;;;;;5.00;1.85;;;;;;;12.77;56.56;100182.16;4996009;28;20053;-85
2021/05/21 01:09:44;;;;;;;2.45;1.40;;;;;;;12.83;55.83;100199.53;5020076;28;20048;-86
2021/05/21 01:12:10;;;;;;;2.65;1.40;;;;;;;12.77;56.81;100185.66;4988946;28;20243;-85
2021/05/21 01:14:49;;;;;;;3.05;1.30;;;;;;;12.82;56.84;100187.31;5015885;28;20041;-86
2021/05/21 01:17:15;;;;;;;1.83;1.25;;;;;;;12.70;57.69;100188.44;5015382;28;20124;-86
2021/05/21 01:19:44;;;;;;;2.10;1.20;;;;;;;12.84;56.38;100175.88;5012613;28;20062;-85
2021/05/21 01:22:12;;;;;;;5.55;1.40;;;;;;;12.79;57.49;100169.88;4985958;28;20055;-86
2021/05/21 01:24:38;;;;;;;2.67;1.30;;;;;;;12.82;56.72;100167.19;5026958;28;20913;-87
2021/05/21 01:27:05;;;;;;;2.67;1.30;;;;;;;12.64;58.21;100204.28;5038497;28;20068;-87
2021/05/21 01:29:31;;;;;;;3.28;1.48;;;;;;;12.75;57.29;100170.84;4997891;28;20048;-85
2021/05/21 01:31:57;;;;;;;2.72;1.25;;;;;;;12.81;57.07;100170.72;5016060;28;20025;-84
2021/05/21 01:34:23;;;;;;;3.35;1.30;;;;;;;12.78;56.94;100170.78;4982225;28;20080;-85
2021/05/21 01:36:49;;;;;;;2.17;1.40;;;;;;;12.76;56.56;100141.94;5013929;28;20548;-85
2021/05/21 01:39:15;;;;;;;2.15;1.25;;;;;;;12.77;56.99;100146.31;5002843;28;20040;-86
2021/05/21 01:41:42;;;;;;;1.98;1.25;;;;;;;12.72;57.41;100144.69;5027316;28;20078;-85
2021/05/21 01:44:11;;;;;;;3.53;1.40;;;;;;;12.72;57.60;100156.06;5016638;28;20477;-86
2021/05/21 01:46:37;;;;;;;;;;;;;;;12.61;58.45;100131.78;5034920;28;20158;-86
2021/05/21 01:49:05;;;;;;;1.90;1.23;;;;;;;12.60;57.97;100169.44;4998532;28;19931;-85
2021/05/21 01:51:32;;;;;;;2.72;1.45;;;;;;;12.78;57.28;100134.06;5016164;28;20064;-85
2021/05/21 01:54:15;;;;;;;4.00;1.85;;;;;;;12.72;57.46;100148.19;5016452;28;20041;-85
2021/05/21 01:56:41;;;;;;;3.80;1.50;;;;;;;12.56;58.99;100141.53;5011037;28;20052;-85
2021/05/21 01:59:06;;;;;;;2.45;1.27;;;;;;;12.61;58.74;100126.56;5011968;28;20037;-86
2021/05/21 02:01:33;;;;;;;2.05;1.38;;;;;;;12.66;58.24;100150.94;5012424;28;20049;-87
2021/05/21 02:03:59;;;;;;;2.58;1.30;;;;;;;12.68;58.10;100112.44;4995698;28;20056;-86
2021/05/21 02:06:28;;;;;;;4.30;1.48;;;;;;;12.64;58.66;100121.25;5029285;28;20095;-86
2021/05/21 02:08:54;;;;;;;2.78;1.30;;;;;;;12.72;58.08;100098.34;5007721;28;20053;-86
2021/05/21 02:11:20;;;;;;;3.63;1.70;;;;;;;12.68;58.00;100138.66;4995810;28;20056;-85
2021/05/21 02:13:46;;;;;;;2.70;1.25;;;;;;;12.67;58.29;100099.31;4996140;28;20032;-87
2021/05/21 02:16:12;;;;;;;4.90;1.52;;;;;;;12.58;58.80;100100.41;5011163;28;20056;-86
2021/05/21 02:18:38;;;;;;;2.92;1.63;;;;;;;12.61;58.78;100092.47;5002427;28;20048;-85
2021/05/21 02:21:05;;;;;;;3.78;1.30;;;;;;;12.56;58.59;100092.56;5018263;28;20766;-86
2021/05/21 02:23:31;;;;;;;3.65;1.25;;;;;;;12.55;59.01;100090.84;4999107;28;20074;-87
2021/05/21 02:25:56;;;;;;;3.95;1.73;;;;;;;12.52;58.95;100106.66;4984705;28;20033;-86
2021/05/21 02:28:22;;;;;;;3.03;1.30;;;;;;;12.49;59.39;100077.00;5030448;28;20053;-86
2021/05/21 02:30:48;;;;;;;3.15;1.20;;;;;;;12.60;58.38;100103.88;5002061;28;20075;-85
2021/05/21 02:33:13;;;;;;;2.45;1.20;;;;;;;12.50;59.45;100124.19;5030380;28;20110;-86
2021/05/21 02:35:39;;;;;;;2.40;1.27;;;;;;;12.59;58.75;100068.91;5015540;28;20055;-86
2021/05/21 02:38:05;;;;;;;3.38;1.30;;;;;;;12.51;59.31;100062.97;5017233;28;20040;-86
2021/05/21 02:40:31;;;;;;;3.50;1.15;;;;;;;12.61;58.63;100061.00;5019245;28;20024;-86
2021/05/21 02:42:57;;;;;;;3.35;2.10;;;;;;;12.44;59.39;100088.44;5027704;28;20052;-86
2021/05/21 02:45:23;;;;;;;2.47;1.20;;;;;;;12.60;57.87;100047.03;5002453;28;20610;-85
2021/05/21 02:47:49;;;;;;;2.30;1.17;;;;;;;12.65;58.20;100072.28;5016997;28;20033;-86
2021/05/21 02:50:15;;;;;;;3.33;1.30;;;;;;;12.43;60.15;100057.03;5016091;28;20104;-86
2021/05/21 02:52:41;;;;;;;2.92;1.23;;;;;;;12.67;58.44;100055.63;5023365;28;20029;-87
2021/05/21 02:55:07;;;;;;;2.22;1.40;;;;;;;12.46;59.98;100063.97;5029044;28;20460;-86
2021/05/21 02:57:33;;;;;;;6.78;1.55;;;;;;;12.56;59.22;100041.91;5017098;28;20868;-86
2021/05/21 02:59:58;;;;;;;2.72;1.30;;;;;;;12.43;59.71;100036.06;5018700;28;20051;-86
2021/05/21 03:02:25;;;;;;;2.20;1.10;;;;;;;12.47;60.20;100044.72;5000390;28;20669;-87
2021/05/21 03:04:54;;;;;;;4.55;1.40;;;;;;;12.63;58.73;100032.13;4981194;28;20033;-85
2021/05/21 03:07:20;;;;;;;2.47;1.20;;;;;;;12.54;59.11;100036.66;4996755;28;20041;-85
2021/05/21 03:09:46;;;;;;;2.25;1.05;;;;;;;12.58;58.80;100043.56;4998780;28;20063;-85
2021/05/21 03:12:12;;;;;;;2.03;1.15;;;;;;;12.60;58.85;100061.91;5008730;28;20055;-85
2021/05/21 03:14:38;;;;;;;1.70;1.10;;;;;;;12.42;59.40;100023.88;5000624;28;20110;-86
2021/05/21 03:17:07;;;;;;;4.28;1.30;;;;;;;12.39;59.84;100058.88;5002191;28;20105;-86
2021/05/21 03:19:33;;;;;;;3.53;1.40;;;;;;;12.55;59.40;100025.28;5003688;28;21186;-85
2021/05/21 03:21:59;;;;;;;4.63;1.30;;;;;;;12.52;59.19;100043.72;5015210;28;20063;-85
2021/05/21 03:24:25;;;;;;;3.05;1.35;;;;;;;12.54;58.85;100015.69;5000390;28;20049;-86
2021/05/21 03:26:51;;;;;;;3.13;1.33;;;;;;;12.55;59.13;100058.53;5022756;28;20266;-85
2021/05/21 03:29:17;;;;;;;2.85;1.30;;;;;;;12.47;59.51;100018.50;5029195;28;20037;-86
2021/05/21 03:31:46;;;;;;;2.22;1.13;;;;;;;12.49;59.43;100007.09;5002956;28;20043;-86
2021/05/21 03:34:15;;;;;;;;;;;;;;;12.59;59.01;100007.75;5018527;28;20101;-85
2021/05/21 03:36:41;;;;;;;;;;;;;;;12.40;60.04;100009.94;5015836;28;19928;-87
2021/05/21 03:39:08;;;;;;;2.35;1.20;;;;;;;12.41;59.83;100011.66;5001525;28;20416;-86
2021/05/21 03:41:35;;;;;;;2.60;1.25;;;;;;;12.36;59.82;100042.34;5029489;28;20496;-86
2021/05/21 03:44:02;;;;;;;3.03;1.33;;;;;;;12.53;58.88;99995.66;5016062;28;20396;-85
2021/05/21 03:46:27;;;;;;;2.95;1.30;;;;;;;12.38;60.46;99998.63;5002742;28;20137;-87
2021/05/21 03:48:53;;;;;;;2.97;1.20;;;;;;;12.45;59.36;100034.28;5011748;28;20076;-86
2021/05/21 03:51:19;;;;;;;2.95;1.10;;;;;;;12.45;59.40;100000.19;5013575;28;20080;-85
2021/05/21 03:53:45;;;;;;;2.15;1.15;;;;;;;12.29;60.43;100025.03;5010361;28;20580;-85
2021/05/21 03:56:11;;;;;;;2.38;1.35;;;;;;;12.25;60.12;100012.00;4998105;28;20036;-86
2021/05/21 03:58:39;;;;;;;2.90;1.38;;;;;;;12.25;60.21;99987.53;5015894;28;20032;-87
2021/05/21 04:01:05;;;;;;;4.40;1.50;;;;;;;12.19;60.58;100019.97;5002642;28;20055;-87
2021/05/21 04:03:31;;;;;;;2.55;1.20;;;;;;;12.30;60.26;99976.97;4997203;28;20103;-86
2021/05/21 04:05:56;;;;;;;2.63;1.20;;;;;;;12.31;59.77;99970.81;5001617;28;20028;-86
2021/05/21 04:08:22;;;;;;;2.25;1.17;;;;;;;12.20;61.00;99979.78;5013124;28;20047;-86
2021/05/21 04:10:48;;;;;;;2.90;1.20;;;;;;;12.13;60.99;99966.84;5012476;28;20814;-86
2021/05/21 04:13:14;;;;;;;3.20;1.20;;;;;;;12.02;61.04;99985.44;5013409;28;20048;-86
2021/05/21 04:15:40;;;;;;;2.40;1.10;;;;;;;12.24;60.41;100012.88;5041613;28;20041;-86
2021/05/21 04:18:10;;;;;;;5.90;1.30;;;;;;;12.06;61.03;99966.16;5032942;28;20061;-86
2021/05/21 04:20:37;;;;;;;3.13;1.63;;;;;;;12.25;59.98;99990.16;5015881;28;20047;-86
2021/05/21 04:23:03;;;;;;;4.00;1.10;;;;;;;12.10;60.86;99978.25;5015267;28;20592;-86
2021/05/21 04:25:29;;;;;;;3.28;1.20;;;;;;;12.24;60.08;99984.06;5002924;28;20047;-86
2021/05/21 04:27:55;;;;;;;2.72;1.10;;;;;;;12.27;59.79;99949.91;5026554;28;20468;-87
2021/05/21 04:30:27;;;;;;;1.42;1.10;;;;;;;12.12;61.11;99954.66;5001516;28;20045;-87
2021/05/21 04:32:53;;;;;;;1.65;1.20;;;;;;;12.21;60.46;99980.63;5011649;28;20065;-87
2021/05/21 04:35:20;;;;;;;2.75;1.20;;;;;;;12.04;60.97;99965.31;5010496;28;20139;-87
2021/05/21 04:37:46;;;;;;;2.25;1.10;;;;;;;12.19;60.36;99988.53;5017037;28;20037;-86
2021/05/21 04:40:15;;;;;;;1.92;1.13;;;;;;;12.20;60.68;99948.34;5007305;28;20053;-87
2021/05/21 04:42:42;;;;;;;4.07;1.52;;;;;;;12.19;60.19;99969.34;4993702;28;20047;-86
2021/05/21 04:45:08;;;;;;;3.45;1.17;;;;;;;12.26;60.55;99990.13;4999149;28;20045;-86
2021/05/21 04:47:35;;;;;;;2.70;1.30;;;;;;;12.11;60.75;99950.31;5009906;28;20041;-87
2021/05/21 04:50:04;;;;;;;;;;;;;;;12.32;60.48;99943.72;4991595;28;20039;-86
2021/05/21 04:52:33;;;;;;;2.55;1.45;;;;;;;12.32;60.07;99970.78;4970342;28;20557;-86
2021/05/21 04:54:59;;;;;;;3.58;1.33;;;;;;;12.30;60.66;99948.16;5028865;28;20037;-86
2021/05/21 04:57:27;;;;;;;2.50;1.20;;;;;;;12.21;61.21;99933.47;5008629;28;20536;-86
2021/05/21 04:59:53;;;;;;;2.25;1.20;;;;;;;12.29;60.50;99942.03;4996072;28;20041;-85
2021/05/21 05:02:19;;;;;;;3.90;1.13;;;;;;;12.35;60.69;99941.91;5023129;28;22958;-85
2021/05/21 05:04:45;;;;;;;3.67;1.15;;;;;;;12.30;60.47;99932.41;4996078;28;20040;-85
2021/05/21 05:07:11;;;;;;;2.28;1.20;;;;;;;12.25;61.00;99938.63;5008847;28;20076;-87
2021/05/21 05:09:37;;;;;;;3.45;1.10;;;;;;;12.16;61.26;99958.94;4988840;28;20052;-85
2021/05/21 05:12:06;;;;;;;1.85;1.08;;;;;;;12.29;60.67;99970.84;5005423;28;20585;-86
2021/05/21 05:14:32;;;;;;;2.95;1.00;;;;;;;12.01;62.20;99928.72;4983703;28;20127;-87
2021/05/21 05:16:58;;;;;;;2.13;1.20;;;;;;;12.12;62.38;99970.38;4986150;28;20740;-85
2021/05/21 05:19:24;;;;;;;2.63;1.17;;;;;;;12.22;61.23;99922.94;5009611;28;20444;-86
2021/05/21 05:21:50;;;;;;;2.30;1.05;;;;;;;12.36;61.05;99940.13;5007713;28;20413;-86
2021/05/21 05:24:19;;;;;;;4.05;1.25;;;;;;;12.36;60.86;99921.78;4998149;28;20044;-87
2021/05/21 05:26:46;;;;;;;5.22;1.42;;;;;;;12.36;60.56;99927.00;5026542;28;20044;-87
2021/05/21 05:29:12;;;;;;;1.95;1.02;;;;;;;12.48;60.16;99947.69;4997678;28;20045;-86
2021/05/21 05:31:40;;;;;;;2.92;1.23;;;;;;;12.29;61.55;99949.03;4981694;28;20119;-86
2021/05/21 05:34:14;;;;;;;3.42;1.30;;;;;;;12.41;60.82;99948.75;5005851;28;20040;-87
2021/05/21 05:36:41;;;;;;;4.78;1.50;;;;;;;12.33;60.79;99927.94;5008730;28;20410;-87
2021/05/21 05:39:07;;;;;;;3.47;1.30;;;;;;;12.39;60.82;99951.41;4994202;28;20124;-85
2021/05/21 05:41:36;;;;;;;;;;;;;;;12.46;61.48;99901.44;5009559;28;20144;-86
2021/05/21 05:44:02;;;;;;;3.85;1.50;;;;;;;12.50;61.12;99910.94;5023044;28;20007;-86
2021/05/21 05:46:28;;;;;;;4.75;1.67;;;;;;;12.57;60.19;99915.13;5030644;28;20037;-86
2021/05/21 05:48:55;;;;;;;7.00;1.63;;;;;;;12.49;60.88;99907.47;5006948;28;20604;-87
2021/05/21 05:51:21;;;;;;;2.38;1.30;;;;;;;12.50;60.86;99893.47;5025306;28;20045;-86
2021/05/21 05:53:47;;;;;;;3.78;1.25;;;;;;;12.65;60.53;99901.84;4985811;28;20048;-86
2021/05/21 05:56:13;;;;;;;3.80;1.42;;;;;;;12.54;61.18;99899.50;5021579;28;20049;-86
2021/05/21 05:58:39;;;;;;;3.75;1.50;;;;;;;12.62;60.20;99891.44;5010212;28;20103;-87
2021/05/21 06:01:05;;;;;;;3.55;1.90;;;;;;;12.59;60.98;99895.00;4997160;28;20045;-86
2021/05/21 06:03:31;;;;;;;3.30;1.10;;;;;;;12.72;59.00;99911.28;5019385;28;20121;-85
2021/05/21 06:05:57;;;;;;;2.13;1.30;;;;;;;12.83;58.21;99890.88;5012124;28;20053;-85
2021/05/21 06:08:23;;;;;;;2.97;1.08;;;;;;;12.78;58.05;99898.88;4995026;28;20037;-84
2021/05/21 06:10:57;;;;;;;3.25;1.35;;;;;;;12.75;58.15;99903.31;5017181;28;20043;-86
2021/05/21 06:13:26;;;;;;;2.45;1.20;;;;;;;12.87;57.98;99887.25;5025865;28;20044;-85
2021/05/21 06:15:53;;;;;;;2.38;1.20;;;;;;;12.85;58.03;99894.31;5015183;28;20041;-86
2021/05/21 06:18:19;;;;;;;3.85;1.20;;;;;;;12.81;57.97;99900.56;5016985;28;20198;-85
2021/05/21 06:20:45;;;;;;;2.97;1.15;;;;;;;12.88;58.93;99896.00;5019629;28;20066;-83
2021/05/21 06:23:11;;;;;;;3.65;1.23;;;;;;;12.89;58.04;99895.97;5030513;28;20040;-84
2021/05/21 06:28:05;;;;;;;2.83;1.10;;;;;;;12.87;58.16;99892.50;5033344;28;20897;-86
2021/05/21 06:30:31;;;;;;;4.72;1.38;;;;;;;12.77;58.85;99886.66;5025350;28;20535;-86
2021/05/21 06:32:57;;;;;;;4.75;1.48;;;;;;;12.72;60.05;99879.81;5014535;28;20041;-84
2021/05/21 06:35:23;;;;;;;5.07;1.60;;;;;;;12.99;58.35;99879.97;5024597;28;20060;-85
2021/05/21 06:37:49;;;;;;;5.38;1.27;;;;;;;13.04;59.03;99905.19;5028497;28;20044;-86
2021/05/21 06:40:15;;;;;;;2.55;1.30;;;;;;;13.01;57.96;99881.63;5042789;28;20441;-86
2021/05/21 06:42:41;;;;;;;4.50;1.05;;;;;;;12.96;58.48;99867.81;5012332;28;21249;-85
2021/05/21 06:45:08;;;;;;;3.05;1.23;;;;;;;12.99;59.09;99883.47;5014158;28;20131;-85
2021/05/21 06:47:34;;;;;;;5.30;1.67;;;;;;;13.03;58.66;99913.09;5034185;28;20048;-85
2021/05/21 06:50:00;;;;;;;4.65;1.70;;;;;;;12.94;60.57;99875.72;5020840;28;20425;-85
2021/05/21 06:52:26;;;;;;;6.93;1.40;;;;;;;13.10;59.18;99880.56;5007029;28;20058;-86
2021/05/21 06:54:53;;;;;;;3.17;1.35;;;;;;;13.23;58.14;99888.94;5001412;28;20136;-85
2021/05/21 06:57:19;;;;;;;2.45;1.10;;;;;;;13.13;58.01;99884.84;5013334;28;20056;-85
2021/05/21 06:59:45;;;;;;;3.40;1.00;;;;;;;13.30;58.67;99858.97;5008148;28;20166;-84
2021/05/21 07:02:12;;;;;;;5.22;1.33;;;;;;;13.27;58.25;99886.16;4995978;28;20052;-86
2021/05/21 07:04:38;;;;;;;6.45;1.40;;;;;;;13.44;56.43;99908.50;5003272;28;20056;-85
2021/05/21 07:07:05;;;;;;;4.95;1.00;;;;;;;13.43;55.45;99884.00;5033383;28;20417;-84
2021/05/21 07:09:31;;;;;;;4.30;1.35;;;;;;;13.49;56.45;99911.84;5007793;28;20044;-85
2021/05/21 07:11:57;;;;;;;4.07;1.60;;;;;;;13.51;55.73;99885.53;5031585;28;20049;-85
2021/05/21 07:14:23;;;;;;;6.32;2.22;;;;;;;13.63;55.30;99922.81;5006030;28;20076;-86
2021/05/21 07:16:52;;;;;;;2.95;1.25;;;;;;;13.69;55.24;99877.09;4999495;28;20036;-85
2021/05/21 07:19:18;;;;;;;2.92;1.30;;;;;;;13.83;53.97;99873.22;5014902;28;20120;-85
2021/05/21 07:21:46;;;;;;;6.40;1.60;;;;;;;13.76;55.31;99864.66;4996753;28;20041;-85
2021/05/21 07:24:12;;;;;;;6.10;1.33;;;;;;;13.85;52.85;99879.28;5037103;28;20068;-84
2021/05/21 07:26:39;;;;;;;5.32;1.55;;;;;;;13.76;55.08;99860.28;5002293;28;20061;-86
2021/05/21 07:29:05;;;;;;;4.45;1.63;;;;;;;13.53;53.53;99871.47;5026511;28;20037;-85
2021/05/21 07:31:31;;;;;;;4.55;1.73;;;;;;;13.50;53.06;99868.94;5032869;28;20840;-87
2021/05/21 07:33:58;;;;;;;3.90;1.20;;;;;;;13.84;53.47;99865.28;5017469;28;20044;-85
2021/05/21 07:36:25;;;;;;;6.45;1.60;;;;;;;13.77;55.79;99898.75;5013937;28;20087;-85
2021/05/21 07:38:51;;;;;;;6.30;1.35;;;;;;;13.80;51.68;99876.78;5029843;28;20107;-85
2021/05/21 07:41:22;;;;;;;8.70;1.77;;;;;;;13.76;51.83;99883.91;5025276;28;20085;-84
2021/05/21 07:43:49;;;;;;;3.70;1.33;;;;;;;13.77;51.06;99901.38;5013950;28;20043;-83
2021/05/21 07:46:15;;;;;;;3.50;1.13;;;;;;;13.58;51.29;99869.56;5015988;28;20041;-86
2021/05/21 07:48:42;;;;;;;3.13;1.17;;;;;;;13.60;51.39;99862.50;5014155;28;20055;-86
2021/05/21 07:51:08;;;;;;;9.32;2.58;;;;;;;13.70;51.86;99864.84;5013858;28;20048;-84
2021/05/21 07:53:34;;;;;;;5.65;2.22;;;;;;;13.61;52.88;99881.75;4999405;28;20049;-85
2021/05/21 07:56:01;;;;;;;3.95;1.33;;;;;;;13.66;54.51;99871.09;5027699;28;20083;-85
2021/05/21 07:58:28;;;;;;;6.82;1.58;;;;;;;13.59;54.20;99866.03;4997461;28;20600;-84
2021/05/21 08:00:54;;;;;;;7.05;1.90;;;;;;;13.51;54.71;99860.13;5015628;28;20128;-86
2021/05/21 08:03:20;;;;;;;7.10;1.58;;;;;;;13.59;53.55;99873.91;4993194;28;20399;-86
2021/05/21 08:05:47;;;;;;;6.18;1.60;;;;;;;13.47;54.40;99887.38;5013709;28;20055;-86
2021/05/21 08:08:20;;;;;;;4.72;1.60;;;;;;;13.44;55.36;99863.84;4995928;28;20036;-87
2021/05/21 08:10:52;;;;;;;6.20;1.45;;;;;;;13.63;53.38;99890.44;5014319;28;20092;-85
2021/05/21 08:13:18;;;;;;;7.13;1.60;;;;;;;13.73;51.04;99867.38;4997547;28;20513;-85
2021/05/21 08:15:44;;;;;;;10.27;2.30;;;;;;;13.74;52.83;99880.47;5009961;28;20126;-86
2021/05/21 08:18:11;;;;;;;4.95;1.67;;;;;;;13.69;53.90;99868.38;4992206;28;20040;-86
2021/05/21 08:20:38;;;;;;;7.68;1.65;;;;;;;13.59;53.24;99878.31;5011792;28;20100;-86
2021/05/21 08:23:05;;;;;;;5.80;1.52;;;;;;;13.70;52.74;99896.38;5041014;28;20127;-82
2021/05/21 08:25:31;;;;;;;6.32;1.60;;;;;;;13.54;49.94;99877.56;5014006;28;20760;-84
2021/05/21 08:27:57;;;;;;;4.63;1.35;;;;;;;13.56;50.58;99875.78;4991042;28;20052;-85
2021/05/21 08:30:24;;;;;;;7.80;1.70;;;;;;;13.43;49.45;99896.25;5025098;28;20056;-85
2021/05/21 08:32:51;;;;;;;5.65;1.67;;;;;;;13.42;49.95;99892.78;4994376;28;20048;-86
2021/05/21 08:35:18;;;;;;;8.20;1.58;;;;;;;13.23;52.08;99899.44;5010980;28;20128;-86
2021/05/21 08:37:45;;;;;;;9.30;1.60;;;;;;;13.48;49.59;99893.53;5014057;28;20036;-86
2021/05/21 08:40:19;;;;;;;7.28;1.60;;;;;;;13.66;50.51;99892.97;5015462;28;20037;-86
2021/05/21 08:42:46;;;;;;;9.88;1.77;;;;;;;13.79;49.37;99904.00;5006116;28;20068;-86
2021/05/21 08:45:16;;;;;;;5.25;1.23;;;;;;;14.00;50.83;99899.84;5009883;28;20483;-85
2021/05/21 08:47:42;;;;;;;4.35;1.10;;;;;;;14.29;46.71;99898.91;5026340;28;20053;-84
2021/05/21 08:50:10;;;;;;;5.47;1.52;;;;;;;14.58;47.56;99890.94;4996437;28;20039;-85
2021/05/21 08:52:37;;;;;;;6.45;1.25;;;;;;;14.62;46.27;99869.81;5029082;28;20052;-85
2021/05/21 08:55:05;;;;;;;6.78;1.60;;;;;;;14.57;49.31;99879.59;5013925;28;20056;-86
2021/05/21 08:57:31;;;;;;;5.80;1.48;;;;;;;14.39;48.07;99878.44;5009465;28;20174;-86
2021/05/21 08:59:58;;;;;;;5.20;1.40;;;;;;;14.12;47.32;99872.28;5014424;28;20080;-85
2021/05/21 09:02:26;;;;;;;8.95;2.03;;;;;;;13.95;48.66;99884.19;5025878;28;20048;-85
2021/05/21 09:04:58;;;;;;;6.28;1.20;;;;;;;13.95;48.42;99913.09;4998794;28;20068;-86
2021/05/21 09:07:28;;;;;;;7.40;1.45;;;;;;;14.23;46.46;99908.75;4994768;28;20028;-85
2021/05/21 09:09:55;;;;;;;5.18;1.30;;;;;;;14.27;43.39;99879.72;5013827;28;20076;-86
2021/05/21 09:12:22;;;;;;;8.50;1.40;;;;;;;14.19;42.03;99892.22;4992779;28;20067;-84
2021/05/21 09:15:13;;;;;;;5.20;1.50;;;;;;;14.17;45.35;99891.41;5017375;28;20043;-85
2021/05/21 09:17:59;;;;;;;4.68;1.30;;;;;;;14.19;44.81;99889.59;5012765;28;20052;-84
2021/05/21 09:20:32;;;;;;;6.80;1.95;;;;;;;14.20;44.38;99909.69;4998172;28;20040;-87
2021/05/21 09:23:17;;;;;;;9.23;1.75;;;;;;;14.10;45.49;99888.09;5014212;28;20040;-84
2021/05/21 09:25:50;;;;;;;7.30;1.40;;;;;;;14.10;45.94;99898.63;5024104;28;20457;-85
2021/05/21 09:28:37;;;;;;;6.93;1.45;;;;;;;14.44;45.17;99904.56;4995314;28;20051;-85
2021/05/21 09:31:18;;;;;;;8.55;2.13;;;;;;;14.11;46.97;99910.88;5011201;28;20056;-87
2021/05/21 09:33:47;;;;;;;6.53;1.20;;;;;;;14.26;47.01;99908.66;5012330;28;20504;-87
2021/05/21 09:36:13;;;;;;;5.00;1.42;;;;;;;14.18;46.90;99906.28;5011442;28;20454;-87
2021/05/21 09:38:50;;;;;;;8.23;1.85;;;;;;;14.22;48.97;99909.66;5013674;28;20044;-85
2021/05/21 09:41:17;;;;;;;10.35;2.00;;;;;;;14.09;47.10;99896.03;5028539;28;20039;-87
2021/05/21 09:43:50;;;;;;;7.15;1.40;;;;;;;14.16;46.68;99902.81;5030816;28;20767;-85
2021/05/21 09:46:15;;;;;;;6.97;1.42;;;;;;;14.18;46.61;99926.44;5025840;28;20075;-87
2021/05/21 09:48:41;;;;;;;6.70;1.63;;;;;;;14.09;46.66;99889.00;5025286;28;20052;-87
2021/05/21 09:51:07;;;;;;;7.25;1.90;;;;;;;14.27;46.75;99895.47;5048512;28;20055;-87
2021/05/21 09:53:33;;;;;;;4.47;1.25;;;;;;;14.20;46.50;99888.66;5028509;28;20091;-85
2021/05/21 09:56:02;;;;;;;8.68;1.33;;;;;;;14.58;44.90;99901.47;5003031;28;20490;-84
2021/05/21 09:58:41;;;;;;;5.32;1.23;;;;;;;14.76;42.90;99878.97;5007683;28;20087;-86
2021/05/21 10:01:18;;;;;;;6.72;1.70;;;;;;;14.99;43.03;99878.16;5022495;28;20113;-86
2021/05/21 10:03:50;;;;;;;5.90;1.48;;;;;;;15.03;41.72;99890.31;4999313;28;20069;-85
2021/05/21 10:06:17;;;;;;;7.45;1.85;;;;;;;14.99;40.81;99888.69;5013868;28;20044;-85
2021/05/21 10:08:45;;;;;;;7.22;1.40;;;;;;;14.88;42.54;99899.59;5035588;28;20118;-85
2021/05/21 10:11:12;;;;;;;4.15;1.42;;;;;;;14.75;40.71;99891.28;4992133;28;20037;-84
2021/05/21 10:13:42;;;;;;;6.20;1.30;;;;;;;14.60;41.75;99905.78;5032088;28;20067;-85
2021/05/21 10:16:10;;;;;;;3.13;1.10;;;;;;;14.73;42.97;99898.38;5015348;28;20832;-86
2021/05/21 10:18:36;;;;;;;6.45;1.02;;;;;;;14.88;41.87;99904.84;5014433;28;20419;-86
2021/05/21 10:21:04;;;;;;;6.57;1.70;;;;;;;14.79;40.70;99892.88;5015756;28;20064;-84
2021/05/21 10:23:35;;;;;;;7.90;1.20;;;;;;;14.74;41.79;99896.59;5031057;28;20036;-87
2021/05/21 10:26:09;;;;;;;3.83;1.30;;;;;;;14.86;41.19;99914.59;5046068;28;20036;-85
2021/05/21 10:28:38;;;;;;;7.32;1.17;;;;;;;14.73;40.42;99892.22;5014573;28;20144;-87
2021/05/21 10:31:04;;;;;;;7.95;1.52;;;;;;;14.68;42.15;99887.16;5013307;28;21569;-87
2021/05/21 10:33:32;;;;;;;6.22;1.33;;;;;;;14.81;41.79;99895.47;5030537;28;20123;-86
2021/05/21 10:36:22;;;;;;;5.97;1.30;;;;;;;14.96;42.33;99904.59;5019893;28;20055;-84
2021/05/21 10:39:13;;;;;;;6.20;1.98;;;;;;;14.86;37.81;99890.91;5013703;28;20064;-85
2021/05/21 10:42:18;;;;;;;6.13;1.60;;;;;;;14.79;39.26;99885.00;5039478;28;20052;-84
2021/05/21 10:44:49;;;;;;;5.63;1.23;;;;;;;14.65;39.06;99876.72;4995794;28;20049;-86
2021/05/21 10:47:25;;;;;;;6.53;1.52;;;;;;;14.67;41.49;99879.31;5016324;28;20280;-85
2021/05/21 10:49:51;;;;;;;4.57;1.35;;;;;;;14.59;41.16;99872.50;5011842;28;20032;-86
2021/05/21 10:52:21;;;;;;;5.38;1.10;;;;;;;14.57;41.22;99861.16;5025043;28;20048;-83
2021/05/21 10:54:52;;;;;;;8.68;1.95;;;;;;;14.80;42.48;99865.69;5029412;28;20037;-85
2021/05/21 10:57:19;;;;;;;7.25;1.40;;;;;;;15.41;38.60;99851.19;4996713;28;20493;-86
2021/05/21 10:59:51;;;;;;;5.53;1.53;;;;;;;15.55;38.75;99850.69;4997899;28;20029;-87
2021/05/21 11:02:22;;;;;;;5.50;1.30;;;;;;;15.78;37.74;99849.78;4997981;28;20045;-85
2021/05/21 11:04:49;;;;;;;3.45;1.05;;;;;;;15.65;39.64;99849.38;5010002;28;20114;-87
2021/05/21 11:07:39;;;;;;;7.90;1.27;;;;;;;15.45;40.15;99858.06;5014516;28;20032;-86
2021/05/21 11:10:06;;;;;;;4.90;1.40;;;;;;;15.42;40.07;99865.22;5014273;28;20076;-86
2021/05/21 11:12:45;;;;;;;4.82;1.30;;;;;;;15.65;37.65;99852.03;5015678;28;20460;-84
2021/05/21 11:15:36;;;;;;;6.78;1.35;;;;;;;16.00;40.96;99834.00;5013018;28;20409;-84
2021/05/21 11:18:18;;;;;;;6.50;1.45;;;;;;;15.87;39.59;99843.31;4996524;28;20063;-85
2021/05/21 11:21:08;;;;;;;5.78;1.30;;;;;;;15.90;39.85;99837.91;4998181;28;20055;-86
2021/05/21 11:23:53;;;;;;;4.80;1.27;;;;;;;16.29;36.56;99825.81;5018706;28;20090;-83
2021/05/21 11:26:19;;;;;;;4.60;1.33;;;;;;;16.56;34.41;99831.69;5018566;28;20654;-84
2021/05/21 11:28:50;;;;;;;7.68;1.45;;;;;;;16.57;38.85;99825.47;5048917;28;20109;-85
2021/05/21 11:31:27;;;;;;;4.78;1.17;;;;;;;16.60;37.26;99833.28;5032103;28;20040;-85
2021/05/21 11:33:54;;;;;;;10.45;1.88;;;;;;;16.53;38.91;99823.91;4995587;28;20061;-86
2021/05/21 11:36:21;;;;;;;6.90;1.90;;;;;;;16.13;38.54;99809.75;4987500;28;20596;-87
2021/05/21 11:38:47;;;;;;;6.30;1.35;;;;;;;15.99;37.37;99848.09;5013230;28;20056;-86